x

Tillamook, Or - 85 Nm Wnw Of Tillamook, Or (46089) Wave Buoy

9:50am - Tue 22nd Jul 2014 All times are PDT. -7 hours from GMT.

  • Sig Wave height 3.3ft
  • Swell Direction
  • Peak Period 11s
  • Average Period 7s
  • Wind
    4mph, 7mph gusts
  • Sea Temp 63°f
  • Air Temp 62°f
  • Sea Pressure 1017.1mb
  • Tillamook, Or - 85 Nm Wnw Of Tillamook, Or
  • Tillamook, Or - 85 Nm Wnw Of Tillamook, Or

More Historic Weather Station data

Upgrade to MSW Pro to gain access to the past 30 days of data for over 8000 Wavebouys and Weather Stations around the globe.

Join Pro

Comparision Forecast

View Surf forecast
   
Tue 07/22 9:50am 3.5ft 11s 7s 4 7 mph 1017.1mb 63f 62f
8:50am 3.5ft 9s 7s 7 9 mph 1017.2mb 63f 61f
7:50am 3.5ft 9s 8s 9 11 mph 1016.9mb 63f 61f
6:50am 3.5ft 11s 8s 9 11 mph 1016.7mb 63f 61f
5:50am 3.5ft 11s 8s 7 9 mph 1016.4mb 63f 62f
4:50am 3.5ft 11s 8s 7 9 mph 1016.6mb 64f 62f
3:50am 3.5ft 11s 7s 7
mph
1017mb 64f 62f
2:50am 4ft 11s 8s 4 7 mph 1017.1mb 64f 62f
1:50am 4ft 9s 7s 7
mph
1017.1mb 64f 62f
12:50am 4ft 10s 7s 7 9 mph 1017.1mb 64f 62f
Mon 07/21 11:50pm 4ft 8s 7s 2 4 mph 1017mb 64f 61f
10:50pm 4ft 9s 7s  -  4 mph 1017.1mb 65f 61f
9:50pm 4ft 11s 7s  -  2 mph 1017.1mb 64f 61f
8:50pm 4.5ft 9s 7s 2 4 mph 1016.8mb 64f 62f
7:50pm 4.5ft 9s 7s 4
mph
1016.9mb 65f 62f
6:50pm 4.5ft 10s 7s 2 4 mph 1017.1mb 65f 62f
5:50pm 4ft 10s 7s 2 4 mph 1017mb 65f 62f
4:50pm 4.5ft 10s 7s 2 4 mph 1017.4mb 65f 62f
3:50pm 4.5ft 11s 7s 2 4 mph 1017.7mb 65f 62f
2:50pm 5ft 10s 7s 4 7 mph 1017.7mb 64f 62f
1:50pm 4.5ft 9s 7s 4 7 mph 1018mb 64f 61f
12:50pm 4.5ft 9s 7s 4 7 mph 1018.3mb 64f 61f
11:50am 5ft 9s 7s 4 7 mph 1018.1mb 64f 61f
10:50am 5.5ft 8s 7s 4 7 mph 1018.1mb 63f 61f
9:50am 5ft 10s 7s 7
mph
1018mb 63f 60f
8:50am 5ft 9s 7s 7 9 mph 1017.9mb 63f 60f
7:50am 5ft 10s 7s 7 9 mph 1017.6mb 63f 60f
6:50am 5ft 11s 7s 9 11 mph 1017.4mb 63f 60f
5:50am 4.5ft 10s 7s 9 11 mph 1017.3mb 63f 60f
4:50am 5ft 10s 7s 7 11 mph 1017.3mb 63f 60f
3:50am 5ft 11s 7s 7 9 mph 1017.2mb 63f 60f
2:50am 6ft 11s 7s 7 9 mph 1017.2mb 63f 60f
1:50am 6ft 11s 7s 7 9 mph 1017.5mb 63f 60f
12:50am 6.5ft 10s 7s 9 11 mph 1017.5mb 63f 60f
Sun 07/20 11:50pm 6ft 11s 7s 9 11 mph 1017.3mb 63f 60f
10:50pm 6ft 10s 7s 9 13 mph 1017.3mb 63f 60f
9:50pm 6.5ft 11s 7s 9 13 mph 1017.2mb 63f 61f
8:50pm 7ft 11s 8s 9 13 mph 1016.9mb 63f 61f
7:50pm 6.5ft 11s 8s 9 13 mph 1016.8mb 63f 61f
6:50pm 6.5ft 11s 8s 9 11 mph 1016.9mb 63f 61f
5:50pm 5.5ft 10s 7s 9 11 mph 1016.9mb 63f 61f
4:50pm 7ft 9s 8s 7 11 mph 1017mb 64f 61f
3:50pm 6.5ft 11s 8s 7 11 mph 1017.2mb 64f 61f
2:50pm 6.5ft 11s 8s 7 9 mph 1017.4mb 63f 61f
1:50pm 7ft 11s 8s 7 11 mph 1017.5mb 63f 61f
12:50pm 7ft 11s 8s 9 11 mph 1017.5mb 63f 61f
11:50am 6ft 10s 7s 9 13 mph 1017.3mb 62f 61f
10:50am 6ft 11s 7s 9 16 mph 1017.2mb 62f 60f
9:50am 6ft 11s 7s 9 13 mph 1017.1mb 63f 60f
8:50am 6ft 10s 7s 9 13 mph 1017mb 63f 60f
7:50am 6.5ft 11s 7s 11 16 mph 1016.8mb 62f 60f
6:50am 7ft 10s 7s 9 13 mph 1016.6mb 62f 60f
5:50am 7ft 10s 7s 11 16 mph 1016.6mb 63f 60f
4:50am 7ft 9s 7s 11 16 mph 1016.5mb 63f 61f
3:50am 7ft 10s 7s 11 13 mph 1016.6mb 63f 61f
2:50am 7ft 10s 7s 11 13 mph 1016.8mb 63f 61f
1:50am 7ft 9s 7s 11 16 mph 1017mb 63f 61f
12:50am 7ft 9s 6s 11 18 mph 1017.1mb 63f 61f
Sat 07/19 11:50pm 6ft 9s 6s 11 13 mph 1017.3mb 63f 61f
10:50pm 6ft 10s 6s 11 16 mph 1017.3mb 63f 61f
9:50pm 6ft 8s 7s 13 18 mph 1017.3mb 63f 61f
8:50pm 6ft 9s 6s 13 18 mph 1017.3mb 64f 59f
7:50pm 6ft 9s 6s 13 18 mph 1017.4mb 64f 61f
6:50pm 5.5ft 9s 6s 11 16 mph 1017.8mb 64f 61f
5:50pm 6ft 8s 6s 13 16 mph 1018.4mb 64f 62f
4:50pm 6ft 9s 7s 11 18 mph 1018.7mb 64f 61f
3:50pm 6ft 9s 7s 11 16 mph 1019mb 64f 62f
2:50pm 5.5ft 8s 6s 11 13 mph 1019.3mb 64f 62f
1:50pm 5.5ft 9s 6s 11 13 mph 1019.6mb 64f 61f
12:50pm 5ft 8s 6s 11 16 mph 1019.8mb 64f 62f
11:50am 4.5ft 9s 6s 11 16 mph 1019.8mb 63f 61f
10:50am 4.5ft 8s 6s 11 13 mph 1019.7mb 63f 61f
9:50am 4.5ft 15s 6s 9 11 mph 1019.8mb 63f 60f
8:50am 4ft 7s 6s 7 9 mph 1020.1mb 63f 60f
7:50am 4ft 6s 5s 7 11 mph 1019.9mb 63f 60f
6:50am 3.5ft 6s 5s 7 9 mph 1020.1mb 63f 60f
5:50am 3.5ft 15s 6s 9 11 mph 1020mb 63f 60f
4:50am 3.5ft 7s 6s 9 11 mph 1020mb 63f 60f
3:50am 3.5ft 7s 6s 7 9 mph 1019.9mb 63f 60f
2:50am 3.5ft 6s 5s 9 11 mph 1020.2mb 63f 60f
1:50am 4ft 7s 6s 9 11 mph 1020.9mb 63f 60f
12:50am 4ft 7s 5s 9 13 mph 1021mb 63f 60f
Fri 07/18 11:50pm 4ft 7s 6s 11 13 mph 1021.2mb 63f 60f
10:50pm 4ft 7s 6s 9 13 mph 1021.2mb 63f 60f
9:50pm 4.5ft 7s 5s 11 16 mph 1021.5mb 63f 60f
8:50pm 5ft 7s 6s 9 13 mph 1021.3mb 63f 60f
7:50pm 4.5ft 8s 6s 11 16 mph 1021.4mb 63f 60f
6:50pm 5ft 8s 6s 9 13 mph 1021.5mb 63f 60f
5:50pm 5ft 8s 6s 9 13 mph 1021.9mb 63f 60f